createdAt,value
2023-09-23T00:01:11.982Z,18.40
2023-09-23T00:03:41.159Z,18.40
2023-09-23T00:06:10.244Z,18.40
2023-09-23T00:08:40.794Z,18.40
2023-09-23T00:11:09.807Z,18.40
2023-09-23T00:13:38.259Z,18.40
2023-09-23T00:16:10.140Z,18.40
2023-09-23T00:18:39.397Z,18.30
2023-09-23T00:21:09.362Z,18.40
2023-09-23T00:23:39.403Z,18.30
2023-09-23T00:26:09.361Z,18.30
2023-09-23T00:28:38.127Z,18.30
2023-09-23T00:31:12.685Z,18.30
2023-09-23T00:33:41.363Z,18.30
2023-09-23T00:36:10.587Z,18.30
2023-09-23T00:38:41.263Z,18.20
2023-09-23T00:41:10.393Z,18.20
2023-09-23T00:43:39.317Z,18.20
2023-09-23T00:46:09.673Z,18.20
2023-09-23T00:48:40.393Z,18.10
2023-09-23T00:51:09.370Z,18.10
2023-09-23T00:53:41.122Z,18.20
2023-09-23T00:56:11.094Z,18.10
2023-09-23T00:58:40.825Z,18.10
2023-09-23T01:01:10.017Z,18.10
2023-09-23T01:03:40.267Z,18.10
2023-09-23T01:06:17.763Z,18.00
2023-09-23T01:08:49.426Z,18.10
2023-09-23T01:11:19.522Z,18.00
2023-09-23T01:13:51.960Z,18.00
2023-09-23T01:16:23.107Z,18.00
2023-09-23T01:18:52.393Z,18.00
2023-09-23T01:21:22.652Z,18.00
2023-09-23T01:23:54.542Z,18.00
2023-09-23T01:26:24.656Z,18.00
2023-09-23T01:28:53.453Z,18.00
2023-09-23T01:31:23.642Z,18.00
2023-09-23T01:33:52.583Z,18.00
2023-09-23T01:36:21.299Z,18.00
2023-09-23T01:38:50.856Z,17.90
2023-09-23T01:41:20.985Z,17.90
2023-09-23T01:43:50.217Z,17.90
2023-09-23T01:46:19.000Z,17.90
2023-09-23T01:48:47.652Z,17.90
2023-09-23T01:51:17.869Z,17.90
2023-09-23T01:53:46.304Z,17.90
2023-09-23T01:56:14.814Z,17.90
2023-09-23T01:58:45.707Z,17.90
2023-09-23T02:01:15.482Z,17.90
2023-09-23T02:03:45.063Z,17.80
2023-09-23T02:06:14.110Z,17.80
2023-09-23T02:08:42.452Z,17.80
2023-09-23T02:11:11.112Z,17.80
2023-09-23T02:13:42.347Z,17.80
2023-09-23T02:16:12.490Z,17.80
2023-09-23T02:18:41.165Z,17.80
2023-09-23T02:21:10.208Z,17.80
2023-09-23T02:23:38.486Z,17.80
2023-09-23T02:26:08.767Z,17.80
2023-09-23T02:28:38.154Z,17.80
2023-09-23T02:31:06.823Z,17.70
2023-09-23T02:33:36.587Z,17.70
2023-09-23T02:36:05.572Z,17.70
2023-09-23T02:38:33.750Z,17.70
2023-09-23T02:41:03.821Z,17.70
2023-09-23T02:43:32.134Z,17.70
2023-09-23T02:46:01.596Z,17.70
2023-09-23T02:49:33.528Z,17.70
2023-09-23T02:52:03.892Z,17.60
2023-09-23T02:54:32.147Z,17.60
2023-09-23T02:57:04.428Z,17.50
2023-09-23T02:59:33.705Z,17.50
2023-09-23T03:02:02.471Z,17.40
2023-09-23T03:04:33.812Z,17.30
2023-09-23T03:07:07.740Z,17.20
2023-09-23T03:09:36.018Z,17.20
2023-09-23T03:12:05.397Z,17.10
2023-09-23T03:14:39.854Z,17.10
2023-09-23T03:17:10.526Z,17.00
2023-09-23T03:19:39.736Z,17.00
2023-09-23T03:22:09.929Z,17.00
2023-09-23T03:24:38.221Z,16.90
2023-09-23T03:27:06.892Z,16.90
2023-09-23T03:29:35.244Z,16.90
2023-09-23T03:32:03.998Z,16.90
2023-09-23T03:34:33.896Z,16.90
2023-09-23T03:37:11.229Z,16.90
2023-09-23T03:39:42.733Z,16.80
2023-09-23T03:42:13.346Z,16.80
2023-09-23T03:44:44.482Z,16.80
2023-09-23T03:47:13.183Z,16.70
2023-09-23T03:49:41.514Z,16.70
2023-09-23T03:52:10.146Z,16.70
2023-09-23T03:54:38.396Z,16.60
2023-09-23T03:57:08.985Z,16.60
2023-09-23T03:59:37.377Z,16.60
2023-09-23T04:02:06.474Z,16.50
2023-09-23T04:04:39.019Z,16.50
2023-09-23T04:07:08.766Z,16.50
2023-09-23T04:09:36.958Z,16.50
2023-09-23T04:12:07.644Z,16.40
2023-09-23T04:14:38.380Z,16.40
2023-09-23T04:17:07.895Z,16.40
2023-09-23T04:19:36.196Z,16.40
2023-09-23T04:22:06.051Z,16.30
2023-09-23T04:24:34.548Z,16.30
2023-09-23T04:27:03.492Z,16.20
2023-09-23T04:29:31.745Z,16.30
2023-09-23T04:32:02.226Z,16.20
2023-09-23T04:34:30.922Z,16.20
2023-09-23T04:36:59.567Z,16.20
2023-09-23T04:39:28.054Z,16.20
2023-09-23T04:41:56.702Z,16.20
2023-09-23T04:44:25.839Z,16.20
2023-09-23T04:46:54.803Z,16.20
2023-09-23T04:49:24.513Z,16.20
2023-09-23T04:51:53.836Z,16.20
2023-09-23T04:54:23.716Z,16.20
2023-09-23T04:56:52.282Z,16.20
2023-09-23T04:59:20.637Z,16.30
2023-09-23T05:01:49.326Z,16.30
2023-09-23T05:04:18.190Z,16.30
2023-09-23T05:06:48.097Z,16.30
2023-09-23T05:09:17.647Z,16.40
2023-09-23T05:11:46.292Z,16.40
2023-09-23T05:14:17.428Z,16.50
2023-09-23T05:16:46.107Z,16.60
2023-09-23T05:19:15.931Z,16.60
2023-09-23T05:21:46.471Z,16.60
2023-09-23T05:24:16.362Z,16.70
2023-09-23T05:26:45.638Z,16.70
2023-09-23T05:29:14.047Z,16.80
2023-09-23T05:31:42.900Z,17.00
2023-09-23T05:34:12.189Z,17.00
2023-09-23T05:36:41.715Z,17.10
2023-09-23T05:39:16.198Z,17.30
2023-09-23T05:41:46.164Z,17.40
2023-09-23T05:44:17.210Z,17.50
2023-09-23T05:46:46.594Z,17.60
2023-09-23T05:49:15.017Z,17.80
2023-09-23T05:51:44.314Z,18.00
2023-09-23T05:54:12.624Z,18.20
2023-09-23T05:56:41.363Z,18.60
2023-09-23T05:59:11.936Z,19.10
2023-09-23T06:01:42.303Z,19.50
2023-09-23T06:04:11.951Z,20.00
2023-09-23T06:06:40.644Z,20.30
2023-09-23T06:09:09.050Z,20.50
2023-09-23T06:11:38.480Z,20.70
2023-09-23T06:14:08.780Z,20.80
2023-09-23T06:16:38.804Z,20.80
2023-09-23T06:19:08.992Z,20.80
2023-09-23T06:21:39.414Z,20.70
2023-09-23T06:24:08.784Z,20.70
2023-09-23T06:26:37.445Z,20.60
2023-09-23T06:29:06.805Z,20.50
2023-09-23T06:31:35.714Z,20.50
2023-09-23T06:34:07.370Z,20.50
2023-09-23T06:36:36.049Z,20.60
2023-09-23T06:39:04.746Z,20.70
2023-09-23T06:41:33.350Z,20.70
2023-09-23T06:44:01.645Z,20.80
2023-09-23T06:46:30.526Z,20.80
2023-09-23T06:48:58.801Z,20.70
2023-09-23T06:51:29.356Z,20.70
2023-09-23T06:53:57.651Z,20.70
2023-09-23T06:56:26.824Z,20.80
2023-09-23T06:58:55.168Z,21.00
2023-09-23T07:01:23.830Z,21.20
2023-09-23T07:03:52.328Z,21.40
2023-09-23T07:06:20.913Z,21.60
2023-09-23T07:08:50.524Z,21.80
2023-09-23T07:11:19.197Z,21.90
2023-09-23T07:13:47.946Z,22.20
2023-09-23T07:16:17.066Z,22.50
2023-09-23T07:18:46.867Z,22.90
2023-09-23T07:21:15.535Z,23.20
2023-09-23T07:23:43.803Z,23.70
2023-09-23T07:26:20.827Z,24.10
2023-09-23T07:28:51.393Z,24.50
2023-09-23T07:31:20.278Z,24.90
2023-09-23T07:33:48.807Z,25.00
2023-09-23T07:36:18.597Z,25.20
2023-09-23T07:38:46.898Z,25.40
2023-09-23T07:41:18.300Z,25.60
2023-09-23T07:43:48.028Z,25.90
2023-09-23T07:46:16.892Z,26.10
2023-09-23T07:48:45.773Z,26.20
2023-09-23T07:51:14.442Z,26.30
2023-09-23T07:53:42.718Z,26.40
2023-09-23T07:56:11.261Z,26.30
2023-09-23T07:58:40.902Z,26.30
2023-09-23T08:01:09.418Z,26.20
2023-09-23T08:03:37.716Z,26.10
2023-09-23T08:06:06.350Z,26.00
2023-09-23T08:08:34.765Z,25.80
2023-09-23T08:11:04.121Z,25.60
2023-09-23T08:13:32.471Z,25.20
2023-09-23T08:16:04.453Z,24.90
2023-09-23T08:18:33.064Z,24.50
2023-09-23T08:21:02.191Z,24.20
2023-09-23T08:23:30.631Z,23.90
2023-09-23T08:25:59.995Z,23.70
2023-09-23T08:28:28.473Z,23.40
2023-09-23T08:30:57.096Z,23.30
2023-09-23T08:33:28.977Z,23.20
2023-09-23T08:35:58.333Z,23.10
2023-09-23T08:38:26.683Z,23.10
2023-09-23T08:40:55.604Z,23.10
2023-09-23T08:43:37.408Z,23.10
2023-09-23T08:46:07.098Z,23.20
2023-09-23T08:48:37.487Z,23.40
2023-09-23T08:51:09.629Z,23.50
2023-09-23T08:53:41.077Z,23.70
2023-09-23T08:56:09.828Z,24.00
2023-09-23T08:58:38.180Z,24.20
2023-09-23T09:01:08.312Z,24.40
2023-09-23T09:03:38.703Z,24.50
2023-09-23T09:06:17.615Z,24.60
2023-09-23T09:08:46.116Z,24.70
2023-09-23T09:11:23.161Z,24.80
2023-09-23T09:13:51.590Z,24.90
2023-09-23T09:16:22.017Z,25.00
2023-09-23T09:18:53.735Z,25.00
2023-09-23T09:21:22.303Z,24.90
2023-09-23T09:23:50.572Z,24.90
2023-09-23T09:26:19.780Z,24.80
2023-09-23T09:28:48.717Z,24.90
2023-09-23T09:31:19.768Z,24.90
2023-09-23T09:33:49.352Z,24.90
2023-09-23T09:36:21.006Z,25.00
2023-09-23T09:38:52.541Z,25.00
2023-09-23T09:41:24.278Z,25.10
2023-09-23T09:43:53.081Z,25.20
2023-09-23T09:46:23.183Z,25.30
2023-09-23T09:48:52.146Z,25.30
2023-09-23T09:51:24.170Z,25.30
2023-09-23T09:53:53.169Z,25.20
2023-09-23T09:56:22.708Z,25.10
2023-09-23T09:58:51.290Z,25.10
2023-09-23T10:01:19.961Z,25.20
2023-09-23T10:03:51.042Z,25.20
2023-09-23T10:06:23.239Z,25.20
2023-09-23T10:08:53.707Z,25.20
2023-09-23T10:11:35.701Z,25.10
2023-09-23T10:14:17.794Z,25.00
2023-09-23T10:16:51.323Z,24.90
2023-09-23T10:19:29.861Z,24.80
2023-09-23T10:22:14.965Z,24.70
2023-09-23T10:24:43.454Z,24.70
2023-09-23T10:27:12.536Z,24.70
2023-09-23T10:29:48.517Z,24.70
2023-09-23T10:32:18.326Z,24.60
2023-09-23T10:34:48.498Z,24.70
2023-09-23T10:37:31.725Z,24.60
2023-09-23T10:40:10.439Z,24.60
2023-09-23T10:42:39.434Z,24.60
2023-09-23T10:45:08.944Z,24.60
2023-09-23T10:47:38.042Z,24.60
2023-09-23T10:50:08.191Z,24.50
2023-09-23T10:52:38.875Z,24.50
2023-09-23T10:55:09.680Z,24.40
2023-09-23T10:57:38.352Z,24.40
2023-09-23T11:00:18.342Z,24.40
2023-09-23T11:02:52.935Z,24.40
2023-09-23T11:05:23.400Z,24.40
2023-09-23T11:07:55.650Z,24.50
2023-09-23T11:10:24.810Z,24.50
2023-09-23T11:12:56.654Z,24.60
2023-09-23T11:15:24.988Z,24.60
2023-09-23T11:17:56.609Z,24.70
2023-09-23T11:20:32.381Z,24.70
2023-09-23T11:23:04.898Z,24.80
2023-09-23T11:25:37.676Z,24.80
2023-09-23T11:28:06.942Z,24.70
2023-09-23T11:30:35.877Z,24.90
2023-09-23T11:33:04.649Z,24.90
2023-09-23T11:35:33.708Z,24.90
2023-09-23T11:38:04.187Z,24.80
2023-09-23T11:40:33.470Z,24.90
2023-09-23T11:43:02.242Z,24.80
2023-09-23T11:45:30.473Z,24.90
2023-09-23T11:48:00.747Z,24.90
2023-09-23T11:50:29.764Z,24.90
2023-09-23T11:52:58.674Z,24.90
2023-09-23T11:55:28.625Z,24.90
2023-09-23T11:57:57.840Z,24.90
2023-09-23T12:00:26.731Z,24.80
2023-09-23T12:02:55.952Z,24.70
2023-09-23T12:05:30.067Z,24.50
2023-09-23T12:08:00.361Z,24.40
2023-09-23T12:10:31.676Z,24.40
2023-09-23T12:13:06.301Z,24.30
2023-09-23T12:15:35.316Z,24.40
2023-09-23T12:18:04.397Z,24.40
2023-09-23T12:20:33.333Z,24.40
2023-09-23T12:23:02.444Z,24.40
2023-09-23T12:25:32.494Z,24.40
2023-09-23T12:28:01.002Z,24.40
2023-09-23T12:30:29.438Z,24.40
2023-09-23T12:32:57.997Z,24.30
2023-09-23T12:35:26.341Z,24.30
2023-09-23T12:37:55.553Z,24.30
2023-09-23T12:40:23.941Z,24.40
2023-09-23T12:42:53.938Z,24.40
2023-09-23T12:45:23.561Z,24.40
2023-09-23T12:47:56.990Z,24.40
2023-09-23T12:50:27.544Z,24.40
2023-09-23T12:52:56.419Z,24.40
2023-09-23T12:55:25.184Z,24.30
2023-09-23T12:57:56.282Z,24.20
2023-09-23T13:00:24.887Z,24.10
2023-09-23T13:02:54.049Z,24.10
2023-09-23T13:05:23.312Z,24.10
2023-09-23T13:07:52.030Z,24.00
2023-09-23T13:10:20.384Z,24.00
2023-09-23T13:12:49.023Z,23.90
2023-09-23T13:15:18.662Z,23.90
2023-09-23T13:17:47.613Z,23.90
2023-09-23T13:20:16.618Z,23.90
2023-09-23T13:22:45.238Z,24.00
2023-09-23T13:25:16.524Z,24.00
2023-09-23T13:27:45.234Z,24.00
2023-09-23T13:30:14.137Z,24.00
2023-09-23T13:32:44.367Z,24.00
2023-09-23T13:35:12.903Z,23.90
2023-09-23T13:37:41.909Z,23.90
2023-09-23T13:40:12.245Z,23.80
2023-09-23T13:42:41.092Z,23.80
2023-09-23T13:45:10.559Z,23.80
2023-09-23T13:47:39.586Z,23.80
2023-09-23T13:50:11.057Z,23.80
2023-09-23T13:52:39.845Z,23.70
2023-09-23T13:55:09.481Z,23.60
2023-09-23T13:57:38.600Z,23.50
2023-09-23T14:00:09.072Z,23.40
2023-09-23T14:02:38.950Z,23.40
2023-09-23T14:05:11.173Z,23.40
2023-09-23T14:07:40.205Z,23.30
2023-09-23T14:10:20.625Z,23.30
2023-09-23T14:12:50.319Z,23.30
2023-09-23T14:15:18.967Z,23.20
2023-09-23T14:17:48.926Z,23.10
2023-09-23T14:20:18.941Z,23.10
2023-09-23T14:22:49.483Z,23.10
2023-09-23T14:25:19.547Z,23.00
2023-09-23T14:27:48.166Z,23.10
2023-09-23T14:30:16.624Z,23.00
2023-09-23T14:32:45.317Z,22.90
2023-09-23T14:35:13.879Z,22.90
2023-09-23T14:37:45.462Z,22.90
2023-09-23T14:40:14.327Z,22.80
2023-09-23T14:42:42.954Z,22.70
2023-09-23T14:45:13.217Z,22.70
2023-09-23T14:47:43.940Z,22.70
2023-09-23T14:50:13.191Z,22.60
2023-09-23T14:52:44.090Z,22.50
2023-09-23T14:55:12.585Z,22.40
2023-09-23T14:57:42.270Z,22.30
2023-09-23T15:00:12.013Z,22.20
2023-09-23T15:02:40.768Z,22.10
2023-09-23T15:05:10.754Z,22.00
2023-09-23T15:07:39.497Z,22.00
2023-09-23T15:10:11.695Z,21.90
2023-09-23T15:12:40.697Z,21.80
2023-09-23T15:15:09.665Z,21.80
2023-09-23T15:17:40.607Z,21.70
2023-09-23T15:20:11.788Z,21.60
2023-09-23T15:22:40.817Z,21.50
2023-09-23T15:25:12.435Z,21.40
2023-09-23T15:27:41.265Z,21.30
2023-09-23T15:30:10.435Z,21.20
2023-09-23T15:32:39.631Z,21.20
2023-09-23T15:35:09.207Z,21.10
2023-09-23T15:37:37.962Z,21.00
2023-09-23T15:40:11.378Z,21.00
2023-09-23T15:42:41.506Z,20.80
2023-09-23T15:45:11.183Z,20.70
2023-09-23T15:47:41.030Z,20.70
2023-09-23T15:50:11.272Z,20.50
2023-09-23T15:52:40.027Z,20.40
2023-09-23T15:55:08.695Z,20.40
2023-09-23T15:57:37.551Z,20.30
2023-09-23T16:00:08.539Z,20.20
2023-09-23T16:02:37.600Z,20.10
2023-09-23T16:05:08.270Z,20.10
2023-09-23T16:07:36.895Z,20.00
2023-09-23T16:10:05.638Z,19.80
2023-09-23T16:12:34.195Z,19.80
2023-09-23T16:15:02.403Z,19.70
2023-09-23T16:17:32.596Z,19.60
2023-09-23T16:20:00.937Z,19.50
2023-09-23T16:22:29.652Z,19.40
2023-09-23T16:24:57.853Z,19.40
2023-09-23T16:27:26.564Z,19.40
2023-09-23T16:29:54.900Z,19.40
2023-09-23T16:32:23.552Z,19.30
2023-09-23T16:34:53.388Z,19.30
2023-09-23T16:37:21.932Z,19.30
2023-09-23T16:39:50.206Z,19.30
2023-09-23T16:42:18.696Z,19.30
2023-09-23T16:44:46.973Z,19.30
2023-09-23T16:47:15.872Z,19.30
2023-09-23T16:49:44.710Z,19.20
2023-09-23T16:52:16.022Z,19.20
2023-09-23T16:54:45.074Z,19.20
2023-09-23T16:57:14.051Z,19.20
2023-09-23T16:59:42.441Z,19.10
2023-09-23T17:02:11.024Z,19.10
2023-09-23T17:04:39.877Z,19.10
2023-09-23T17:07:08.432Z,19.00
2023-09-23T17:09:37.963Z,19.00
2023-09-23T17:12:07.040Z,19.00
2023-09-23T17:14:36.294Z,18.90
2023-09-23T17:17:05.133Z,18.80
2023-09-23T17:19:33.332Z,18.80
2023-09-23T17:22:02.204Z,18.80
2023-09-23T17:24:31.252Z,18.70
2023-09-23T17:27:01.220Z,18.70
2023-09-23T17:29:29.534Z,18.60
2023-09-23T17:31:58.360Z,18.60
2023-09-23T17:34:26.615Z,18.60
2023-09-23T17:36:55.176Z,18.50
2023-09-23T17:39:23.795Z,18.50
2023-09-23T17:41:52.365Z,18.50
2023-09-23T17:44:22.057Z,18.50
2023-09-23T17:46:50.735Z,18.40
2023-09-23T17:49:19.016Z,18.40
2023-09-23T17:51:48.213Z,18.40
2023-09-23T17:54:16.538Z,18.30
2023-09-23T17:56:45.118Z,18.30
2023-09-23T17:59:13.432Z,18.20
2023-09-23T18:01:43.396Z,18.20
2023-09-23T18:04:12.402Z,18.10
2023-09-23T18:06:41.857Z,18.10
2023-09-23T18:09:10.472Z,18.10
2023-09-23T18:11:39.279Z,18.00
2023-09-23T18:14:07.737Z,17.90
2023-09-23T18:16:36.549Z,17.90
2023-09-23T18:19:06.426Z,17.80
2023-09-23T18:21:35.382Z,17.80
2023-09-23T18:24:04.076Z,17.80
2023-09-23T18:26:33.315Z,17.70
2023-09-23T18:29:01.738Z,17.60
2023-09-23T18:31:32.152Z,17.60
2023-09-23T18:34:00.895Z,17.50
2023-09-23T18:36:30.991Z,17.50
2023-09-23T18:38:59.384Z,17.40
2023-09-23T18:41:28.231Z,17.40
2023-09-23T18:43:56.760Z,17.30
2023-09-23T18:46:27.048Z,17.20
2023-09-23T18:48:55.540Z,17.20
2023-09-23T18:51:24.699Z,17.20
2023-09-23T18:53:54.812Z,17.20
2023-09-23T18:56:24.579Z,17.00
2023-09-23T18:58:53.035Z,17.00
2023-09-23T19:01:21.958Z,16.90
2023-09-23T19:03:50.866Z,16.90
2023-09-23T19:06:19.931Z,16.80
2023-09-23T19:08:48.695Z,16.70
2023-09-23T19:11:21.065Z,16.70
2023-09-23T19:13:49.571Z,16.70
2023-09-23T19:16:18.647Z,16.60
2023-09-23T19:18:47.106Z,16.60
2023-09-23T19:21:15.977Z,16.60
2023-09-23T19:23:44.528Z,16.50
2023-09-23T19:26:13.468Z,16.50
2023-09-23T19:28:45.234Z,16.40
2023-09-23T19:31:17.038Z,16.40
2023-09-23T19:33:48.251Z,16.40
2023-09-23T19:36:17.632Z,16.30
2023-09-23T19:38:46.277Z,16.30
2023-09-23T19:41:15.182Z,16.20
2023-09-23T19:43:45.205Z,16.10
2023-09-23T19:46:14.738Z,16.10
2023-09-23T19:48:43.204Z,16.10
2023-09-23T19:51:13.759Z,16.00
2023-09-23T19:53:42.208Z,16.00
2023-09-23T19:56:11.124Z,16.00
2023-09-23T19:58:39.517Z,15.90
2023-09-23T20:01:10.034Z,15.90
2023-09-23T20:03:38.506Z,15.90
2023-09-23T20:06:08.152Z,15.90
2023-09-23T20:08:36.670Z,15.90
2023-09-23T20:11:06.321Z,15.90
2023-09-23T20:13:35.321Z,15.80
2023-09-23T20:16:04.224Z,15.80
2023-09-23T20:18:34.208Z,15.80
2023-09-23T20:21:03.375Z,15.80
2023-09-23T20:23:32.837Z,15.80
2023-09-23T20:26:01.870Z,15.80
2023-09-23T20:28:30.336Z,15.80
2023-09-23T20:31:00.572Z,15.70
2023-09-23T20:33:29.842Z,15.70
2023-09-23T20:36:01.460Z,15.70
2023-09-23T20:38:30.046Z,15.60
2023-09-23T20:41:03.112Z,15.60
2023-09-23T20:43:32.422Z,15.60
2023-09-23T20:46:01.314Z,15.50
2023-09-23T20:48:29.820Z,15.50
2023-09-23T20:51:00.285Z,15.40
2023-09-23T20:53:28.902Z,15.40
2023-09-23T20:55:57.448Z,15.30
2023-09-23T20:58:25.732Z,15.30
2023-09-23T21:00:54.346Z,15.30
2023-09-23T21:03:22.787Z,15.30
2023-09-23T21:05:51.706Z,15.30
2023-09-23T21:08:21.516Z,15.20
2023-09-23T21:10:50.064Z,15.20
2023-09-23T21:13:18.317Z,15.20
2023-09-23T21:15:46.836Z,15.20
2023-09-23T21:18:15.175Z,15.20
2023-09-23T21:20:43.751Z,15.10
2023-09-23T21:23:11.974Z,15.10
2023-09-23T21:25:41.822Z,15.10
2023-09-23T21:28:10.041Z,15.10
2023-09-23T21:30:38.559Z,15.00
2023-09-23T21:33:07.349Z,15.00
2023-09-23T21:35:36.018Z,15.00
2023-09-23T21:38:04.586Z,15.00
2023-09-23T21:40:33.442Z,15.00
2023-09-23T21:43:02.985Z,14.90
2023-09-23T21:45:31.704Z,14.90
2023-09-23T21:48:02.314Z,14.90
2023-09-23T21:50:30.932Z,14.90
2023-09-23T21:52:59.208Z,14.80
2023-09-23T21:55:27.751Z,14.90
2023-09-23T21:57:56.477Z,14.80
2023-09-23T22:00:29.353Z,14.80
2023-09-23T22:02:59.913Z,14.80
2023-09-23T22:05:31.129Z,14.80
2023-09-23T22:08:01.386Z,14.70
2023-09-23T22:10:30.388Z,14.70
2023-09-23T22:13:00.349Z,14.70
2023-09-23T22:15:31.645Z,14.70
2023-09-23T22:18:00.055Z,14.60
2023-09-23T22:20:28.919Z,14.60
2023-09-23T22:22:57.966Z,14.60
2023-09-23T22:25:26.821Z,14.60
2023-09-23T22:27:56.350Z,14.60
2023-09-23T22:30:27.012Z,14.50
2023-09-23T22:32:58.593Z,14.50
2023-09-23T22:35:28.963Z,14.50
2023-09-23T22:37:58.309Z,14.50
2023-09-23T22:40:27.131Z,14.50
2023-09-23T22:42:58.396Z,14.40
2023-09-23T22:45:38.801Z,14.40
2023-09-23T22:48:09.901Z,14.40
2023-09-23T22:50:39.280Z,14.40
2023-09-23T22:53:08.675Z,14.40
2023-09-23T22:55:39.425Z,14.40
2023-09-23T22:58:08.189Z,14.40
2023-09-23T23:00:37.510Z,14.40
2023-09-23T23:03:07.835Z,14.40
2023-09-23T23:05:39.784Z,14.40
2023-09-23T23:08:09.282Z,14.30
2023-09-23T23:10:38.079Z,14.30
2023-09-23T23:13:09.846Z,14.30
2023-09-23T23:15:38.894Z,14.30
2023-09-23T23:18:07.728Z,14.30
2023-09-23T23:20:36.337Z,14.30
2023-09-23T23:23:06.142Z,14.30
2023-09-23T23:25:37.575Z,14.30
2023-09-23T23:28:08.267Z,14.20
2023-09-23T23:30:38.302Z,14.30
2023-09-23T23:33:07.247Z,14.30
2023-09-23T23:35:38.844Z,14.20
2023-09-23T23:38:10.631Z,14.20
2023-09-23T23:40:39.159Z,14.20
2023-09-23T23:43:08.171Z,14.20
2023-09-23T23:45:36.699Z,14.10
2023-09-23T23:48:05.866Z,14.10
2023-09-23T23:50:34.545Z,14.10
2023-09-23T23:53:03.879Z,14.10
2023-09-23T23:55:33.753Z,14.10
2023-09-23T23:58:01.990Z,14.00
